createdAt,value
2019-05-20T00:02:25.868Z,10.00
2019-05-20T00:05:09.439Z,9.92
2019-05-20T00:07:44.022Z,9.90
2019-05-20T00:10:22.032Z,9.80
2019-05-20T00:13:00.249Z,9.70
2019-05-20T00:15:44.125Z,9.67
2019-05-20T00:18:21.296Z,9.61
2019-05-20T00:20:55.295Z,9.57
2019-05-20T00:23:39.386Z,9.54
2019-05-20T00:26:18.134Z,9.44
2019-05-20T00:29:04.645Z,9.35
2019-05-20T00:31:39.367Z,9.31
2019-05-20T00:34:12.024Z,9.19
2019-05-20T00:36:45.455Z,9.17
2019-05-20T00:39:22.313Z,9.12
2019-05-20T00:42:09.466Z,9.09
2019-05-20T00:48:16.886Z,9.41
2019-05-20T00:50:56.000Z,9.60
2019-05-20T00:53:29.227Z,9.52
2019-05-20T00:56:01.902Z,9.43
2019-05-20T00:58:34.564Z,9.35
2019-05-20T01:01:07.870Z,9.33
2019-05-20T01:03:41.617Z,9.24
2019-05-20T01:06:15.027Z,9.14
2019-05-20T01:08:49.954Z,9.09
2019-05-20T01:11:24.468Z,9.03
2019-05-20T01:13:57.039Z,8.92
2019-05-20T01:16:29.750Z,9.03
2019-05-20T01:19:02.349Z,9.17
2019-05-20T01:21:35.866Z,9.29
2019-05-20T01:24:09.160Z,9.42
2019-05-20T01:26:41.688Z,9.40
2019-05-20T01:29:14.323Z,9.26
2019-05-20T01:31:47.122Z,9.22
2019-05-20T01:34:20.320Z,9.32
2019-05-20T01:36:53.717Z,9.23
2019-05-20T01:39:27.096Z,9.19
2019-05-20T01:41:59.848Z,9.03
2019-05-20T01:44:33.373Z,8.94
2019-05-20T01:47:07.924Z,8.84
2019-05-20T01:49:41.937Z,8.89
2019-05-20T01:52:15.169Z,9.25
2019-05-20T01:54:56.745Z,9.59
2019-05-20T01:57:50.497Z,9.68
2019-05-20T02:00:24.625Z,9.91
2019-05-20T02:02:57.334Z,10.18
2019-05-20T02:05:29.959Z,10.24
2019-05-20T02:08:07.507Z,10.41
2019-05-20T02:10:40.272Z,10.52
2019-05-20T02:13:12.773Z,10.53
2019-05-20T02:15:54.336Z,10.65
2019-05-20T02:18:27.161Z,10.60
2019-05-20T02:20:59.727Z,10.67
2019-05-20T02:23:32.294Z,10.81
2019-05-20T02:26:04.872Z,10.96
2019-05-20T02:28:37.468Z,11.04
2019-05-20T02:31:10.052Z,11.03
2019-05-20T02:33:51.599Z,10.95
2019-05-20T02:36:26.964Z,10.89
2019-05-20T02:38:59.705Z,10.95
2019-05-20T02:41:32.460Z,11.01
2019-05-20T02:44:05.016Z,11.14
2019-05-20T02:46:37.816Z,11.20
2019-05-20T02:49:10.392Z,11.28
2019-05-20T02:51:42.999Z,11.34
2019-05-20T02:54:15.458Z,11.34
2019-05-20T02:56:48.081Z,11.34
2019-05-20T02:59:21.882Z,11.37
2019-05-20T03:01:54.746Z,11.47
2019-05-20T03:04:27.455Z,11.50
2019-05-20T03:07:00.237Z,11.56
2019-05-20T03:09:33.212Z,11.61
2019-05-20T03:12:05.833Z,11.74
2019-05-20T03:14:38.378Z,11.83
2019-05-20T03:17:11.087Z,11.95
2019-05-20T03:19:43.625Z,12.02
2019-05-20T03:22:18.519Z,12.08
2019-05-20T03:24:51.117Z,12.11
2019-05-20T03:27:25.762Z,12.19
2019-05-20T03:30:00.740Z,12.26
2019-05-20T03:32:36.587Z,12.37
2019-05-20T03:35:13.962Z,12.40
2019-05-20T03:37:48.633Z,12.46
2019-05-20T03:40:22.263Z,12.47
2019-05-20T03:42:54.966Z,12.51
2019-05-20T03:45:28.234Z,12.52
2019-05-20T03:48:00.991Z,12.55
2019-05-20T03:50:34.271Z,12.58
2019-05-20T03:53:07.381Z,12.58
2019-05-20T03:55:39.890Z,12.59
2019-05-20T03:58:13.798Z,12.66
2019-05-20T04:00:47.889Z,12.67
2019-05-20T04:03:20.657Z,12.70
2019-05-20T04:05:55.143Z,12.70
2019-05-20T04:08:30.653Z,12.72
2019-05-20T04:11:03.745Z,12.75
2019-05-20T04:13:36.483Z,12.77
2019-05-20T04:16:10.008Z,12.78
2019-05-20T04:18:43.871Z,12.81
2019-05-20T04:21:16.504Z,12.84
2019-05-20T04:23:49.399Z,12.84
2019-05-20T04:26:22.137Z,12.85
2019-05-20T04:28:55.354Z,12.87
2019-05-20T04:31:28.007Z,12.89
2019-05-20T04:34:01.029Z,12.91
2019-05-20T04:36:33.567Z,12.93
2019-05-20T04:39:08.675Z,12.96
2019-05-20T04:41:41.427Z,12.97
2019-05-20T04:44:14.521Z,13.03
2019-05-20T04:46:47.222Z,13.11
2019-05-20T04:49:19.901Z,13.16
2019-05-20T04:51:52.800Z,13.13
2019-05-20T04:54:25.534Z,13.14
2019-05-20T04:56:58.073Z,13.16
2019-05-20T04:59:30.510Z,13.20
2019-05-20T05:02:03.241Z,13.19
2019-05-20T05:04:35.809Z,13.17
2019-05-20T05:07:08.672Z,13.17
2019-05-20T05:09:41.145Z,13.16
2019-05-20T05:12:17.742Z,13.17
2019-05-20T05:14:50.259Z,13.22
2019-05-20T05:17:22.853Z,13.22
2019-05-20T05:19:55.691Z,13.22
2019-05-20T05:22:28.421Z,13.25
2019-05-20T05:25:00.986Z,13.26
2019-05-20T05:27:34.412Z,13.27
2019-05-20T05:30:07.955Z,13.29
2019-05-20T05:32:41.563Z,13.30
2019-05-20T05:35:17.403Z,13.31
2019-05-20T05:37:50.148Z,13.34
2019-05-20T05:40:32.565Z,13.38
2019-05-20T05:43:05.281Z,13.40
2019-05-20T05:45:39.285Z,13.41
2019-05-20T05:48:12.133Z,13.46
2019-05-20T05:50:44.768Z,13.49
2019-05-20T05:53:17.813Z,13.50
2019-05-20T05:55:52.860Z,13.52
2019-05-20T05:58:26.471Z,13.51
2019-05-20T06:00:59.005Z,13.53
2019-05-20T06:03:31.616Z,13.56
2019-05-20T06:06:12.065Z,13.58
2019-05-20T06:08:46.085Z,13.57
2019-05-20T06:11:19.383Z,13.60
2019-05-20T06:13:53.179Z,13.63
2019-05-20T06:16:36.373Z,13.66
2019-05-20T06:19:09.950Z,13.67
2019-05-20T06:21:42.688Z,13.73
2019-05-20T06:24:15.250Z,13.77
2019-05-20T06:26:48.717Z,13.75
2019-05-20T06:29:21.424Z,13.72
2019-05-20T06:31:54.137Z,13.73
2019-05-20T06:34:26.885Z,13.72
2019-05-20T06:37:08.143Z,13.71
2019-05-20T06:39:40.758Z,13.78
2019-05-20T06:42:13.427Z,13.84
2019-05-20T06:44:52.940Z,13.94
2019-05-20T06:47:28.933Z,13.93
2019-05-20T06:50:05.800Z,13.98
2019-05-20T06:52:40.621Z,13.96
2019-05-20T06:55:14.902Z,13.94
2019-05-20T06:57:48.799Z,13.94
2019-05-20T07:00:35.872Z,14.00
2019-05-20T07:03:08.775Z,14.03
2019-05-20T07:05:41.398Z,14.03
2019-05-20T07:08:13.931Z,14.02
2019-05-20T07:10:47.700Z,14.08
2019-05-20T07:13:22.484Z,14.13
2019-05-20T07:15:56.865Z,14.17
2019-05-20T07:18:30.354Z,14.17
2019-05-20T07:21:03.643Z,14.20
2019-05-20T07:23:36.342Z,14.29
2019-05-20T07:26:09.059Z,14.34
2019-05-20T07:28:43.315Z,14.41
2019-05-20T07:31:15.966Z,14.43
2019-05-20T07:33:48.734Z,14.40
2019-05-20T07:36:26.755Z,14.41
2019-05-20T07:39:02.274Z,14.43
2019-05-20T07:41:41.165Z,14.45
2019-05-20T07:44:14.599Z,14.48
2019-05-20T07:46:48.349Z,14.48
2019-05-20T07:49:23.950Z,14.45
2019-05-20T07:51:57.948Z,14.51
2019-05-20T07:54:31.270Z,14.59
2019-05-20T07:57:12.013Z,14.63
2019-05-20T07:59:52.824Z,14.63
2019-05-20T08:02:28.946Z,14.66
2019-05-20T08:05:05.423Z,14.73
2019-05-20T08:07:51.462Z,14.72
2019-05-20T08:10:26.594Z,14.72
2019-05-20T08:12:59.236Z,14.74
2019-05-20T08:15:32.528Z,14.77
2019-05-20T08:18:05.422Z,14.77
2019-05-20T08:20:38.002Z,14.73
2019-05-20T08:23:11.718Z,14.69
2019-05-20T08:25:45.766Z,14.72
2019-05-20T08:28:18.407Z,14.76
2019-05-20T08:30:53.275Z,14.82
2019-05-20T08:33:27.980Z,14.86
2019-05-20T08:36:00.671Z,14.79
2019-05-20T08:38:37.733Z,14.70
2019-05-20T08:41:12.163Z,14.61
2019-05-20T08:43:45.566Z,14.58
2019-05-20T08:46:18.050Z,14.54
2019-05-20T08:48:51.374Z,14.56
2019-05-20T08:51:24.601Z,14.65
2019-05-20T08:54:00.733Z,14.69
2019-05-20T08:56:35.647Z,14.73
2019-05-20T08:59:08.348Z,14.78
2019-05-20T09:01:43.857Z,14.84
2019-05-20T09:04:18.591Z,14.85
2019-05-20T09:06:54.372Z,14.78
2019-05-20T09:09:29.237Z,14.77
2019-05-20T09:12:04.476Z,14.79
2019-05-20T09:14:43.057Z,14.85
2019-05-20T09:17:17.980Z,14.90
2019-05-20T09:19:50.781Z,14.95
2019-05-20T09:22:25.807Z,14.98
2019-05-20T09:24:58.578Z,15.04
2019-05-20T09:27:31.382Z,15.04
2019-05-20T09:30:07.324Z,15.03
2019-05-20T09:32:43.386Z,15.06
2019-05-20T09:35:16.740Z,15.07
2019-05-20T09:37:49.373Z,15.09
2019-05-20T09:40:38.695Z,15.11
2019-05-20T09:43:12.101Z,15.09
2019-05-20T09:45:44.704Z,15.09
2019-05-20T09:48:19.805Z,15.10
2019-05-20T09:50:55.809Z,15.15
2019-05-20T09:53:46.885Z,15.24
2019-05-20T09:56:24.473Z,15.30
2019-05-20T09:59:00.771Z,15.25
2019-05-20T10:01:38.663Z,15.14
2019-05-20T10:04:26.091Z,15.06
2019-05-20T10:07:19.344Z,15.08
2019-05-20T10:09:58.652Z,15.09
2019-05-20T10:12:45.476Z,15.11
2019-05-20T10:15:24.967Z,15.09
2019-05-20T10:18:36.075Z,15.05
2019-05-20T10:21:14.162Z,14.99
2019-05-20T10:23:57.781Z,15.03
2019-05-20T10:26:56.025Z,15.11
2019-05-20T10:29:31.466Z,15.23
2019-05-20T10:32:04.792Z,15.28
2019-05-20T10:34:39.054Z,15.31
2019-05-20T10:37:11.750Z,15.41
2019-05-20T10:39:45.070Z,15.54
2019-05-20T10:42:29.605Z,15.61
2019-05-20T10:45:07.387Z,15.63
2019-05-20T10:47:40.016Z,15.74
2019-05-20T10:50:16.871Z,15.76
2019-05-20T10:52:50.414Z,15.82
2019-05-20T10:55:26.021Z,15.88
2019-05-20T10:58:00.823Z,15.93
2019-05-20T11:00:36.718Z,15.98
2019-05-20T11:03:13.247Z,16.03
2019-05-20T11:05:48.039Z,16.04
2019-05-20T11:08:21.655Z,16.08
2019-05-20T11:10:55.975Z,16.16
2019-05-20T11:13:30.069Z,16.15
2019-05-20T11:16:19.598Z,16.11
2019-05-20T11:18:57.880Z,16.18
2019-05-20T11:21:35.407Z,16.26
2019-05-20T11:24:09.112Z,16.23
2019-05-20T11:26:42.859Z,16.14
2019-05-20T11:29:15.556Z,16.02
2019-05-20T11:31:48.566Z,15.93
2019-05-20T11:34:21.950Z,15.82
2019-05-20T11:36:54.518Z,15.83
2019-05-20T11:39:33.224Z,15.75
2019-05-20T11:42:12.717Z,15.73
2019-05-20T11:44:45.730Z,15.91
2019-05-20T11:47:18.818Z,16.04
2019-05-20T11:49:54.399Z,16.10
2019-05-20T11:52:28.618Z,16.05
2019-05-20T11:55:01.912Z,16.07
2019-05-20T11:57:35.649Z,16.05
2019-05-20T12:00:13.679Z,16.02
2019-05-20T12:02:47.010Z,15.99
2019-05-20T12:05:22.431Z,15.92
2019-05-20T12:07:58.668Z,15.89
2019-05-20T12:10:32.984Z,15.84
2019-05-20T12:13:09.235Z,15.80
2019-05-20T12:15:43.205Z,15.83
2019-05-20T12:18:17.006Z,15.81
2019-05-20T12:20:51.236Z,15.71
2019-05-20T12:23:25.752Z,15.77
2019-05-20T12:25:58.795Z,15.87
2019-05-20T12:28:31.606Z,15.96
2019-05-20T12:31:06.237Z,15.97
2019-05-20T12:33:42.225Z,15.92
2019-05-20T12:36:17.786Z,15.86
2019-05-20T12:38:53.848Z,15.80
2019-05-20T12:41:28.042Z,15.79
2019-05-20T12:44:11.930Z,15.77
2019-05-20T12:46:50.567Z,15.84
2019-05-20T12:49:24.789Z,15.95
2019-05-20T12:52:00.106Z,15.97
2019-05-20T12:54:33.488Z,15.87
2019-05-20T12:57:07.776Z,15.85
2019-05-20T12:59:41.481Z,15.81
2019-05-20T13:02:17.525Z,15.72
2019-05-20T13:04:50.875Z,15.70
2019-05-20T13:07:27.768Z,15.77
2019-05-20T13:10:03.078Z,15.88
2019-05-20T13:12:37.862Z,15.92
2019-05-20T13:15:16.373Z,16.01
2019-05-20T13:17:49.477Z,16.13
2019-05-20T13:20:23.847Z,16.19
2019-05-20T13:22:58.278Z,16.19
2019-05-20T13:25:32.377Z,16.29
2019-05-20T13:28:12.428Z,16.29
2019-05-20T13:30:46.446Z,16.29
2019-05-20T13:33:21.881Z,16.27
2019-05-20T13:35:55.552Z,16.30
2019-05-20T13:38:28.145Z,16.24
2019-05-20T13:41:01.692Z,16.33
2019-05-20T13:43:36.374Z,16.35
2019-05-20T13:46:08.996Z,16.41
2019-05-20T13:48:41.720Z,16.50
2019-05-20T13:51:16.535Z,16.57
2019-05-20T13:53:49.166Z,16.66
2019-05-20T13:56:23.551Z,16.65
2019-05-20T13:58:57.808Z,16.61
2019-05-20T14:01:34.169Z,16.58
2019-05-20T14:04:12.231Z,16.59
2019-05-20T14:06:47.097Z,16.58
2019-05-20T14:09:21.207Z,16.48
2019-05-20T14:11:56.051Z,16.44
2019-05-20T14:14:29.130Z,16.35
2019-05-20T14:17:07.498Z,16.37
2019-05-20T14:19:41.176Z,16.28
2019-05-20T14:22:14.954Z,16.31
2019-05-20T14:24:49.497Z,16.42
2019-05-20T14:27:22.257Z,16.49
2019-05-20T14:29:56.430Z,16.41
2019-05-20T14:32:32.562Z,16.33
2019-05-20T14:35:06.328Z,16.35
2019-05-20T14:37:39.949Z,16.33
2019-05-20T14:40:13.008Z,16.36
2019-05-20T14:42:45.760Z,16.34
2019-05-20T14:45:19.603Z,16.44
2019-05-20T14:47:56.153Z,16.49
2019-05-20T14:50:28.941Z,16.54
2019-05-20T14:53:03.284Z,16.55
2019-05-20T14:55:42.218Z,16.63
2019-05-20T14:58:26.337Z,16.67
2019-05-20T15:01:06.360Z,16.69
2019-05-20T15:04:08.135Z,16.65
2019-05-20T15:06:48.269Z,16.58
2019-05-20T15:09:29.164Z,16.47
2019-05-20T15:12:10.312Z,16.38
2019-05-20T15:14:44.849Z,16.32
2019-05-20T15:17:23.879Z,16.26
2019-05-20T15:20:00.648Z,16.26
2019-05-20T15:22:33.695Z,16.23
2019-05-20T15:25:08.989Z,16.20
2019-05-20T15:27:43.749Z,16.23
2019-05-20T15:30:21.752Z,16.26
2019-05-20T15:32:56.588Z,16.25
2019-05-20T15:35:32.284Z,16.28
2019-05-20T15:38:13.594Z,16.29
2019-05-20T15:40:49.499Z,16.35
2019-05-20T15:43:26.286Z,16.43
2019-05-20T15:46:03.322Z,16.54
2019-05-20T15:48:56.817Z,16.66
2019-05-20T15:51:42.519Z,16.65
2019-05-20T15:54:17.724Z,16.54
2019-05-20T15:56:53.464Z,16.44
2019-05-20T15:59:26.796Z,16.40
2019-05-20T16:02:01.273Z,16.33
2019-05-20T16:04:34.702Z,16.25
2019-05-20T16:07:14.044Z,16.21
2019-05-20T16:09:52.035Z,16.17
2019-05-20T16:12:25.463Z,16.14
2019-05-20T16:14:58.146Z,16.12
2019-05-20T16:17:33.829Z,16.12
2019-05-20T16:20:10.564Z,16.12
2019-05-20T16:22:47.618Z,16.16
2019-05-20T16:25:23.494Z,16.18
2019-05-20T16:27:58.550Z,16.25
2019-05-20T16:30:33.323Z,16.23
2019-05-20T16:33:08.772Z,16.23
2019-05-20T16:35:48.908Z,16.26
2019-05-20T16:38:22.969Z,16.18
2019-05-20T16:40:59.353Z,16.10
2019-05-20T16:43:35.105Z,16.02
2019-05-20T16:46:09.281Z,15.96
2019-05-20T16:48:46.535Z,15.95
2019-05-20T16:51:24.474Z,15.91
2019-05-20T16:54:01.251Z,15.83
2019-05-20T16:56:38.500Z,15.85
2019-05-20T16:59:13.553Z,15.84
2019-05-20T17:01:47.423Z,15.81
2019-05-20T17:04:22.225Z,15.74
2019-05-20T17:06:55.072Z,15.71
2019-05-20T17:09:28.965Z,15.70
2019-05-20T17:12:03.036Z,15.72
2019-05-20T17:14:37.910Z,15.70
2019-05-20T17:17:13.543Z,15.72
2019-05-20T17:19:49.470Z,15.68
2019-05-20T17:22:23.350Z,15.62
2019-05-20T17:24:59.491Z,15.63
2019-05-20T17:27:34.043Z,15.62
2019-05-20T17:30:16.913Z,15.60
2019-05-20T17:32:50.477Z,15.63
2019-05-20T17:35:25.959Z,15.59
2019-05-20T17:37:59.727Z,15.58
2019-05-20T17:40:34.379Z,15.60
2019-05-20T17:43:09.734Z,15.61
2019-05-20T17:45:46.177Z,15.57
2019-05-20T17:48:20.588Z,15.57
2019-05-20T17:50:55.059Z,15.58
2019-05-20T17:53:31.394Z,15.56
2019-05-20T17:56:05.078Z,15.54
2019-05-20T17:58:38.609Z,15.53
2019-05-20T18:01:15.882Z,15.55
2019-05-20T18:03:53.242Z,15.59
2019-05-20T18:06:35.496Z,15.66
2019-05-20T18:09:13.836Z,15.62
2019-05-20T18:11:54.879Z,15.59
2019-05-20T18:14:30.188Z,15.58
2019-05-20T18:17:06.346Z,15.56
2019-05-20T18:19:42.765Z,15.56
2019-05-20T18:22:18.534Z,15.54
2019-05-20T18:24:51.671Z,15.58
2019-05-20T18:27:27.225Z,15.56
2019-05-20T18:30:08.338Z,15.51
2019-05-20T18:32:48.176Z,15.47
2019-05-20T18:35:22.191Z,15.48
2019-05-20T18:37:59.710Z,15.48
2019-05-20T18:40:33.524Z,15.43
2019-05-20T18:43:13.026Z,15.42
2019-05-20T18:45:57.148Z,15.38
2019-05-20T18:48:32.066Z,15.41
2019-05-20T18:51:09.340Z,15.39
2019-05-20T18:53:45.864Z,15.33
2019-05-20T18:56:27.136Z,15.35
2019-05-20T18:59:01.305Z,15.31
2019-05-20T19:01:46.117Z,15.26
2019-05-20T19:04:34.895Z,15.23
2019-05-20T19:07:08.339Z,15.22
2019-05-20T19:09:42.630Z,15.22
2019-05-20T19:12:16.628Z,15.19
2019-05-20T19:14:50.756Z,15.18
2019-05-20T19:17:27.486Z,15.15
2019-05-20T19:20:02.615Z,15.12
2019-05-20T19:22:37.370Z,15.11
2019-05-20T19:25:14.191Z,15.10
2019-05-20T19:27:47.806Z,15.08
2019-05-20T19:30:21.321Z,15.09
2019-05-20T19:32:57.262Z,15.07
2019-05-20T19:35:43.002Z,15.10
2019-05-20T19:38:18.505Z,15.24
2019-05-20T19:40:56.027Z,15.20
2019-05-20T19:43:33.706Z,15.11
2019-05-20T19:46:10.327Z,15.04
2019-05-20T19:48:43.734Z,14.98
2019-05-20T19:51:20.588Z,14.95
2019-05-20T19:53:54.488Z,14.93
2019-05-20T19:56:28.725Z,14.91
2019-05-20T19:59:02.471Z,14.88
2019-05-20T20:01:36.444Z,14.87
2019-05-20T20:04:14.847Z,14.85
2019-05-20T20:06:47.657Z,14.87
2019-05-20T20:09:21.917Z,14.86
2019-05-20T20:12:09.790Z,14.84
2019-05-20T20:14:52.354Z,14.85
2019-05-20T20:17:31.925Z,14.83
2019-05-20T20:20:07.636Z,14.82
2019-05-20T20:22:42.842Z,14.78
2019-05-20T20:25:17.201Z,14.76
2019-05-20T20:27:51.954Z,14.74
2019-05-20T20:30:25.157Z,14.74
2019-05-20T20:33:01.985Z,14.72
2019-05-20T20:35:38.327Z,14.68
2019-05-20T20:38:11.959Z,14.68
2019-05-20T20:40:46.675Z,14.71
2019-05-20T20:43:20.833Z,14.68
2019-05-20T20:45:57.062Z,14.67
2019-05-20T20:48:33.340Z,14.65
2019-05-20T20:51:06.119Z,14.67
2019-05-20T20:53:43.733Z,14.65
2019-05-20T20:56:25.303Z,14.63
2019-05-20T20:58:58.366Z,14.60
2019-05-20T21:01:34.606Z,14.58
2019-05-20T21:04:18.331Z,14.58
2019-05-20T21:07:07.131Z,14.54
2019-05-20T21:09:42.825Z,14.49
2019-05-20T21:12:18.643Z,14.45
2019-05-20T21:14:56.114Z,14.41
2019-05-20T21:17:30.823Z,14.35
2019-05-20T21:20:06.033Z,14.31
2019-05-20T21:22:39.757Z,14.25
2019-05-20T21:25:13.528Z,14.22
2019-05-20T21:27:46.322Z,14.21
2019-05-20T21:30:19.737Z,14.19
2019-05-20T21:33:08.268Z,14.17
2019-05-20T21:35:45.190Z,14.19
2019-05-20T21:38:20.630Z,14.14
2019-05-20T21:40:55.198Z,14.10
2019-05-20T21:43:27.674Z,14.04
2019-05-20T21:46:01.883Z,14.02
2019-05-20T21:48:36.000Z,13.99
2019-05-20T21:51:10.639Z,13.98
2019-05-20T21:53:45.042Z,13.98
2019-05-20T21:56:23.792Z,13.93
2019-05-20T21:58:56.918Z,13.88
2019-05-20T22:01:31.439Z,13.89
2019-05-20T22:04:08.391Z,13.87
2019-05-20T22:06:41.080Z,13.83
2019-05-20T22:09:14.653Z,13.79
2019-05-20T22:11:47.495Z,13.79
2019-05-20T22:14:21.059Z,13.78
2019-05-20T22:16:55.796Z,13.78
2019-05-20T22:19:29.428Z,13.76
2019-05-20T22:22:22.548Z,13.80
2019-05-20T22:24:55.423Z,13.86
2019-05-20T22:27:28.194Z,13.85
2019-05-20T22:30:04.393Z,13.86
2019-05-20T22:32:37.555Z,13.80
2019-05-20T22:35:10.342Z,13.80
2019-05-20T22:37:42.946Z,13.80
2019-05-20T22:40:20.047Z,13.80
2019-05-20T22:42:55.012Z,13.78
2019-05-20T22:45:28.622Z,13.77
2019-05-20T22:48:01.504Z,13.78
2019-05-20T22:50:33.981Z,13.82
2019-05-20T22:53:08.765Z,13.80
2019-05-20T22:55:42.685Z,13.82
2019-05-20T22:58:22.146Z,13.79
2019-05-20T23:00:56.535Z,13.77
2019-05-20T23:03:29.899Z,13.75
2019-05-20T23:06:02.592Z,13.74
2019-05-20T23:08:35.237Z,13.81
2019-05-20T23:11:07.767Z,13.79
2019-05-20T23:13:41.185Z,13.76
2019-05-20T23:16:13.728Z,13.76
2019-05-20T23:18:49.707Z,13.69
2019-05-20T23:21:23.964Z,13.68
2019-05-20T23:23:56.558Z,13.64
2019-05-20T23:26:30.078Z,13.64
2019-05-20T23:29:03.434Z,13.62
2019-05-20T23:31:35.996Z,13.57
2019-05-20T23:34:13.138Z,13.55
2019-05-20T23:36:46.710Z,13.52
2019-05-20T23:39:20.711Z,13.49
2019-05-20T23:41:53.226Z,13.46
2019-05-20T23:44:25.771Z,13.46
2019-05-20T23:46:58.431Z,13.45
2019-05-20T23:49:31.758Z,13.41
2019-05-20T23:52:04.193Z,13.37
2019-05-20T23:54:37.022Z,13.35
2019-05-20T23:57:10.674Z,13.32
2019-05-20T23:59:43.746Z,13.28
